createdAt,value
2022-12-17T00:08:59.293Z,52372.84
2022-12-17T00:11:48.949Z,52436.24
2022-12-17T00:14:38.073Z,52453.92
2022-12-17T00:17:27.564Z,52435.44
2022-12-17T00:20:17.026Z,52454.73
2022-12-17T00:23:06.151Z,52433.43
2022-12-17T00:25:55.186Z,52447.89
2022-12-17T00:28:40.676Z,52445.88
2022-12-17T00:31:29.806Z,52450.30
2022-12-17T00:34:21.389Z,52453.92
2022-12-17T00:37:10.861Z,52460.75
2022-12-17T00:40:00.275Z,52464.77
2022-12-17T00:42:50.555Z,52459.14
2022-12-17T00:45:39.956Z,52450.70
2022-12-17T00:48:29.237Z,52447.89
2022-12-17T00:51:18.667Z,52456.73
2022-12-17T00:54:08.075Z,52455.93
2022-12-17T00:56:57.394Z,52445.88
2022-12-17T00:59:46.464Z,52452.31
2022-12-17T01:02:35.784Z,52436.64
2022-12-17T01:05:26.165Z,52451.51
2022-12-17T01:08:15.465Z,52447.49
2022-12-17T01:11:15.996Z,52455.93
2022-12-17T01:14:04.872Z,52437.45
2022-12-17T01:16:53.875Z,52443.88
2022-12-17T01:19:45.511Z,52458.74
2022-12-17T01:22:34.683Z,52446.29
2022-12-17T01:25:24.744Z,52439.85
2022-12-17T01:28:14.024Z,52446.68
2022-12-17T01:31:03.323Z,52441.05
2022-12-17T01:33:54.406Z,52439.85
2022-12-17T01:36:43.451Z,52439.05
2022-12-17T01:39:33.380Z,52435.43
2022-12-17T01:42:22.615Z,52431.01
2022-12-17T01:45:13.273Z,52441.05
2022-12-17T01:48:03.341Z,52449.09
2022-12-17T01:50:53.284Z,52438.24
2022-12-17T01:53:43.952Z,52439.05
2022-12-17T01:56:33.055Z,52454.72
2022-12-17T01:59:22.405Z,52443.47
2022-12-17T02:02:11.798Z,52428.20
2022-12-17T02:05:01.045Z,52447.49
2022-12-17T02:08:01.867Z,52439.86
2022-12-17T02:10:53.422Z,52433.43
2022-12-17T02:13:48.849Z,52426.59
2022-12-17T02:16:39.543Z,52451.11
2022-12-17T02:19:35.253Z,52431.01
2022-12-17T02:22:31.540Z,52433.82
2022-12-17T02:25:24.677Z,52433.82
2022-12-17T02:28:22.944Z,52431.81
2022-12-17T02:31:12.591Z,52425.79
2022-12-17T02:34:01.713Z,52438.24
2022-12-17T02:36:54.333Z,52441.05
2022-12-17T02:39:43.817Z,52429.40
2022-12-17T02:42:32.973Z,52434.63
2022-12-17T02:45:23.937Z,52436.64
2022-12-17T02:48:13.325Z,52433.82
2022-12-17T02:51:02.474Z,52440.26
2022-12-17T02:54:07.667Z,52431.41
2022-12-17T02:56:56.448Z,52431.01
2022-12-17T02:59:46.865Z,52438.65
2022-12-17T03:02:38.036Z,52417.34
2022-12-17T03:05:44.467Z,52426.59
2022-12-17T03:08:34.198Z,52427.39
2022-12-17T03:11:24.724Z,52422.17
2022-12-17T03:14:25.346Z,52433.82
2022-12-17T03:17:28.957Z,52418.96
2022-12-17T03:20:18.029Z,52437.84
2022-12-17T03:23:07.183Z,52430.61
2022-12-17T03:25:56.292Z,52438.65
2022-12-17T03:28:45.499Z,52425.39
2022-12-17T03:31:35.389Z,52406.90
2022-12-17T03:34:24.481Z,52429.00
2022-12-17T03:37:13.744Z,52422.97
2022-12-17T03:40:03.053Z,52415.34
2022-12-17T03:42:51.426Z,52426.19
2022-12-17T03:45:40.446Z,52435.03
2022-12-17T03:48:31.068Z,52428.20
2022-12-17T03:51:20.161Z,52413.73
2022-12-17T03:54:09.726Z,52433.02
2022-12-17T03:56:58.905Z,52443.88
2022-12-17T04:00:03.015Z,52421.77
2022-12-17T04:03:01.380Z,52423.78
2022-12-17T04:05:50.417Z,52426.19
2022-12-17T04:08:39.746Z,52419.36
2022-12-17T04:11:29.400Z,52431.41
2022-12-17T04:14:27.033Z,52431.82
2022-12-17T04:17:16.341Z,52433.02
2022-12-17T04:20:08.517Z,52404.49
2022-12-17T04:22:57.588Z,52416.95
2022-12-17T04:25:46.507Z,52416.54
2022-12-17T04:28:35.513Z,52414.54
2022-12-17T04:31:24.669Z,52411.32
2022-12-17T04:34:16.186Z,52393.23
2022-12-17T04:37:05.258Z,52420.96
2022-12-17T04:39:54.324Z,52408.10
2022-12-17T04:42:43.256Z,52412.12
2022-12-17T04:45:32.347Z,52405.69
2022-12-17T04:48:25.006Z,52408.91
2022-12-17T04:51:14.147Z,52406.09
2022-12-17T04:53:59.442Z,52422.17
2022-12-17T04:56:49.021Z,52422.17
2022-12-17T04:59:38.114Z,52406.90
2022-12-17T05:02:27.460Z,52421.77
2022-12-17T05:05:16.857Z,52398.86
2022-12-17T05:08:06.422Z,52419.36
2022-12-17T05:10:55.775Z,52405.29
2022-12-17T05:13:45.023Z,52420.96
2022-12-17T05:16:34.203Z,52420.16
2022-12-17T05:19:25.599Z,52422.98
2022-12-17T05:22:14.549Z,52420.16
2022-12-17T05:25:03.712Z,52422.57
2022-12-17T05:27:52.965Z,52413.32
2022-12-17T05:30:42.361Z,52408.51
2022-12-17T05:33:31.503Z,52408.11
2022-12-17T05:49:21.828Z,52389.21
2022-12-17T05:52:10.876Z,52386.40
2022-12-17T05:55:00.092Z,52404.09
2022-12-17T05:57:53.152Z,52393.23
2022-12-17T06:00:46.156Z,52380.77
2022-12-17T06:03:36.298Z,52420.56
2022-12-17T06:06:26.659Z,52417.35
2022-12-17T06:09:16.481Z,52393.24
2022-12-17T06:12:05.674Z,52417.35
2022-12-17T06:14:54.588Z,52392.84
2022-12-17T06:17:43.685Z,52398.46
2022-12-17T06:20:32.914Z,52409.31
2022-12-17T06:23:22.111Z,52408.10
2022-12-17T06:26:12.664Z,52400.47
2022-12-17T06:29:01.840Z,52392.03
2022-12-17T06:31:51.140Z,52406.50
2022-12-17T06:34:40.859Z,52388.81
2022-12-17T06:37:31.044Z,52409.71
2022-12-17T06:40:20.416Z,52381.98
2022-12-17T06:43:15.021Z,52388.82
2022-12-17T07:04:27.178Z,52389.62
2022-12-17T07:07:18.579Z,52380.78
2022-12-17T07:10:12.281Z,52385.20
2022-12-17T07:13:03.570Z,52396.85
2022-12-17T07:15:53.019Z,52383.59
2022-12-17T07:18:42.205Z,52398.86
2022-12-17T07:21:31.373Z,52385.60
2022-12-17T07:24:20.637Z,52390.82
2022-12-17T07:27:09.815Z,52389.62
2022-12-17T08:23:36.425Z,52375.95
2022-12-17T08:26:26.385Z,52388.01
2022-12-17T08:29:15.964Z,52373.14
2022-12-17T08:32:10.672Z,52394.04
2022-12-17T08:34:59.831Z,52386.00
2022-12-17T08:37:49.600Z,52382.38
2022-12-17T08:40:39.289Z,52370.32
2022-12-17T08:43:29.069Z,52377.96
2022-12-17T08:46:18.212Z,52379.97
2022-12-17T08:49:07.711Z,52367.11
2022-12-17T08:51:56.974Z,52379.17
2022-12-17T08:54:46.875Z,52377.16
2022-12-17T08:57:36.164Z,52391.63
2022-12-17T09:00:27.632Z,52378.77
2022-12-17T09:03:18.586Z,52377.16
2022-12-17T09:06:08.119Z,52371.13
2022-12-17T09:08:57.691Z,52378.77
2022-12-17T09:11:47.265Z,52369.93
2022-12-17T09:14:36.812Z,52355.46
2022-12-17T09:17:26.509Z,52359.48
2022-12-17T09:20:16.011Z,52375.15
2022-12-17T09:23:05.481Z,52353.05
2022-12-17T09:25:58.080Z,52365.10
2022-12-17T09:28:47.823Z,52385.20
2022-12-17T09:31:37.651Z,52383.19
2022-12-17T09:34:27.827Z,52361.09
2022-12-17T09:37:17.188Z,52355.46
2022-12-17T09:40:07.214Z,52367.92
2022-12-17T09:43:00.783Z,52366.71
2022-12-17T09:45:51.920Z,52378.77
2022-12-17T09:48:43.418Z,52369.52
2022-12-17T09:51:40.475Z,52351.84
2022-12-17T09:54:35.318Z,52377.16
2022-12-17T09:57:25.173Z,52371.54
2022-12-17T10:00:14.202Z,52366.71
2022-12-17T10:03:03.396Z,52378.36
2022-12-17T10:05:53.066Z,52367.91
2022-12-17T10:08:42.448Z,52380.37
2022-12-17T10:11:42.244Z,52378.77
2022-12-17T10:14:37.401Z,52367.52
2022-12-17T10:17:28.218Z,52363.49
2022-12-17T10:20:17.323Z,52371.54
2022-12-17T10:23:07.795Z,52363.49
2022-12-17T10:25:56.877Z,52365.51
2022-12-17T10:28:47.166Z,52366.71
2022-12-17T10:31:39.168Z,52366.31
2022-12-17T10:34:31.250Z,52367.91
2022-12-17T10:37:18.716Z,52359.88
2022-12-17T10:40:15.490Z,52367.92
2022-12-17T10:43:04.663Z,52371.13
2022-12-17T10:45:54.379Z,52390.02
2022-12-17T10:48:48.755Z,52353.45
2022-12-17T10:51:43.549Z,52385.60
2022-12-17T10:54:45.422Z,52367.12
2022-12-17T10:57:45.824Z,52374.75
2022-12-17T11:00:52.199Z,52355.46
2022-12-17T11:04:05.985Z,52388.82
2022-12-17T11:06:56.627Z,52367.52
2022-12-17T11:09:57.685Z,52368.32
2022-12-17T11:12:50.116Z,52373.95
2022-12-17T11:15:41.765Z,52366.71
2022-12-17T11:18:34.482Z,52371.53
2022-12-17T11:21:26.631Z,52378.76
2022-12-17T11:24:22.022Z,52356.66
2022-12-17T11:27:12.318Z,52375.15
2022-12-17T11:30:01.271Z,52364.30
2022-12-17T11:33:00.530Z,52373.54
2022-12-17T11:35:51.750Z,52369.12
2022-12-17T11:38:48.540Z,52370.73
2022-12-17T11:41:40.297Z,52367.92
2022-12-17T11:44:33.094Z,52386.00
2022-12-17T11:47:26.954Z,52371.53
2022-12-17T11:50:18.084Z,52357.47
2022-12-17T11:53:10.482Z,52369.92
2022-12-17T11:56:05.257Z,52352.64
2022-12-17T11:58:56.243Z,52357.87
2022-12-17T12:01:49.219Z,52368.72
2022-12-17T12:04:45.070Z,52366.30
2022-12-17T12:07:37.586Z,52358.67
2022-12-17T12:10:27.398Z,52346.22
2022-12-17T12:13:21.014Z,52357.07
2022-12-17T12:16:20.758Z,52357.47
2022-12-17T12:19:13.516Z,52365.91
2022-12-17T12:22:05.263Z,52353.45
2022-12-17T12:25:12.747Z,52349.83
2022-12-17T12:28:07.628Z,52354.25
2022-12-17T12:30:58.832Z,52357.47
2022-12-17T12:33:50.669Z,52366.71
2022-12-17T12:36:39.933Z,52346.61
2022-12-17T12:39:31.255Z,52357.87
2022-12-17T12:42:21.499Z,52354.65
2022-12-17T12:45:12.848Z,52349.03
2022-12-17T12:48:04.637Z,52364.70
2022-12-17T12:51:00.865Z,52361.88
2022-12-17T12:53:50.058Z,52373.54
2022-12-17T12:56:51.934Z,52360.68
2022-12-17T12:59:46.712Z,52369.13
2022-12-17T13:02:47.120Z,52360.28
2022-12-17T13:05:35.517Z,52336.17
2022-12-17T13:08:18.468Z,52354.66
2022-12-17T13:10:50.213Z,52347.82
2022-12-17T13:13:23.101Z,52368.32
2022-12-17T13:15:55.462Z,52343.00
2022-12-17T13:18:29.482Z,52368.72
2022-12-17T13:21:02.550Z,52362.29
2022-12-17T13:23:36.059Z,52360.28
2022-12-17T13:26:25.165Z,52353.85
2022-12-17T13:29:05.336Z,52363.09
2022-12-17T13:31:48.619Z,52357.47
2022-12-17T13:34:22.476Z,52343.80
2022-12-17T13:36:56.231Z,52352.24
2022-12-17T13:39:38.131Z,52357.87
2022-12-17T13:42:19.281Z,52359.48
2022-12-17T13:44:50.592Z,52364.70
2022-12-17T13:47:24.551Z,52367.11
2022-12-17T13:50:31.547Z,52359.88
2022-12-17T13:52:47.932Z,52350.63
2022-12-17T13:55:23.052Z,52365.10
2022-12-17T13:57:54.675Z,52349.43
2022-12-17T14:00:27.492Z,52366.31
2022-12-17T14:02:59.495Z,52353.45
2022-12-17T14:05:33.517Z,52341.39
2022-12-17T14:08:06.172Z,52348.63
2022-12-17T14:10:38.413Z,52363.10
2022-12-17T14:13:11.824Z,52352.24
2022-12-17T14:15:47.446Z,52349.43
2022-12-17T14:18:20.216Z,52364.30
2022-12-17T14:20:51.624Z,52353.85
2022-12-17T14:23:25.620Z,52327.73
2022-12-17T14:25:57.045Z,52361.09
2022-12-17T14:28:31.547Z,52357.87
2022-12-17T14:34:08.567Z,52367.92
2022-12-17T14:36:41.922Z,52354.25
2022-12-17T14:39:21.183Z,52355.05
2022-12-17T14:42:10.527Z,52350.63
2022-12-17T14:44:51.849Z,52375.95
2022-12-17T14:47:25.181Z,52362.69
2022-12-17T14:50:02.625Z,52349.83
2022-12-17T14:52:45.285Z,52347.02
2022-12-17T14:55:37.100Z,52349.43
2022-12-17T14:58:24.689Z,52375.55
2022-12-17T15:00:57.219Z,52350.63
2022-12-17T15:03:30.039Z,52353.45
2022-12-17T15:06:02.446Z,52366.31
2022-12-17T15:08:38.392Z,52355.05
2022-12-17T15:11:11.335Z,52345.01
2022-12-17T15:13:42.769Z,52366.71
2022-12-17T15:16:14.368Z,52360.68
2022-12-17T15:18:46.034Z,52359.07
2022-12-17T15:21:17.602Z,52356.66
2022-12-17T15:23:49.014Z,52358.27
2022-12-17T15:26:21.550Z,52362.69
2022-12-17T15:28:53.201Z,52340.19
2022-12-17T15:31:26.150Z,52352.24
2022-12-17T15:34:00.991Z,52341.79
2022-12-17T15:36:33.395Z,52383.99
2022-12-17T15:39:07.224Z,52366.71
2022-12-17T15:41:56.299Z,52359.07
2022-12-17T15:44:27.968Z,52366.71
2022-12-17T15:46:59.385Z,52347.02
2022-12-17T15:49:31.057Z,52360.28
2022-12-17T15:52:04.118Z,52371.53
2022-12-17T15:54:35.966Z,52360.68
2022-12-17T15:57:07.696Z,52361.89
2022-12-17T15:59:38.097Z,52345.81
2022-12-17T16:02:10.866Z,52345.41
2022-12-17T16:04:42.756Z,52366.31
2022-12-17T16:07:12.643Z,52374.34
2022-12-17T16:09:44.212Z,52363.89
2022-12-17T16:12:15.722Z,52368.72
2022-12-17T16:14:47.220Z,52386.80
2022-12-17T16:17:18.572Z,52371.94
2022-12-17T16:19:49.859Z,52373.95
2022-12-17T16:22:21.323Z,52374.35
2022-12-17T16:24:52.946Z,52387.21
2022-12-17T16:27:24.752Z,52376.76
2022-12-17T16:29:56.315Z,52380.37
2022-12-17T16:32:32.933Z,52384.39
2022-12-17T16:35:08.281Z,52379.57
2022-12-17T16:37:39.661Z,52369.93
2022-12-17T16:40:13.364Z,52372.74
2022-12-17T16:42:45.063Z,52369.52
2022-12-17T16:45:14.738Z,52365.10
2022-12-17T16:47:46.386Z,52369.52
2022-12-17T16:50:18.209Z,52360.28
2022-12-17T16:52:49.647Z,52370.73
2022-12-17T16:55:21.224Z,52371.94
2022-12-17T16:57:52.874Z,52375.55
2022-12-17T17:00:24.422Z,52366.30
2022-12-17T17:02:54.544Z,52368.32
2022-12-17T17:05:26.240Z,52361.89
2022-12-17T17:07:58.006Z,52352.65
2022-12-17T17:10:29.607Z,52371.54
2022-12-17T17:12:59.577Z,52369.52
2022-12-17T17:15:31.074Z,52357.47
2022-12-17T17:18:02.667Z,52367.51
2022-12-17T17:20:34.168Z,52360.28
2022-12-17T17:23:05.648Z,52358.68
2022-12-17T17:25:57.758Z,52382.79
2022-12-17T17:28:30.760Z,52383.19
2022-12-17T17:31:03.395Z,52396.85
2022-12-17T17:33:35.802Z,52375.55
2022-12-17T17:36:09.001Z,52370.73
2022-12-17T17:38:41.683Z,52374.75
2022-12-17T17:41:14.372Z,52395.65
2022-12-17T17:43:45.779Z,52369.93
2022-12-17T17:46:18.338Z,52386.00
2022-12-17T17:48:55.259Z,52386.80
2022-12-17T17:51:59.730Z,52380.77
2022-12-17T17:54:20.846Z,52380.38
2022-12-17T17:56:52.390Z,52373.54
2022-12-17T17:59:30.916Z,52389.22
2022-12-17T18:02:05.332Z,52394.84
2022-12-17T18:04:37.018Z,52386.00
2022-12-17T18:07:24.926Z,52386.41
2022-12-17T18:09:59.990Z,52386.80
2022-12-17T18:12:49.400Z,52393.63
2022-12-17T18:15:21.043Z,52386.00
2022-12-17T18:17:54.293Z,52393.63
2022-12-17T18:20:26.063Z,52395.25
2022-12-17T18:22:57.458Z,52394.04
2022-12-17T18:25:34.186Z,52382.79
2022-12-17T18:28:08.668Z,52363.50
2022-12-17T18:30:42.435Z,52369.93
2022-12-17T18:33:13.817Z,52390.42
2022-12-17T18:35:45.370Z,52377.16
2022-12-17T18:38:16.724Z,52375.55
2022-12-17T18:40:49.635Z,52374.75
2022-12-17T18:43:26.959Z,52368.72
2022-12-17T18:45:58.572Z,52373.14
2022-12-17T18:48:30.202Z,52371.93
2022-12-17T18:51:07.478Z,52370.33
2022-12-17T18:53:39.099Z,52383.19
2022-12-17T18:56:10.188Z,52361.49
2022-12-17T18:58:41.907Z,52366.31
2022-12-17T19:01:23.843Z,52356.26
2022-12-17T19:03:53.752Z,52381.58
2022-12-17T19:06:27.695Z,52368.32
2022-12-17T19:08:59.259Z,52379.17
2022-12-17T19:11:33.901Z,52371.53
2022-12-17T19:14:05.440Z,52386.40
2022-12-17T19:16:37.102Z,52377.16
2022-12-17T19:19:07.101Z,52363.89
2022-12-17T19:21:38.532Z,52361.89
2022-12-17T19:24:13.458Z,52385.20
2022-12-17T19:26:45.304Z,52373.54
2022-12-17T19:29:15.334Z,52381.18
2022-12-17T19:31:47.467Z,52367.12
2022-12-17T19:34:19.927Z,52369.12
2022-12-17T19:36:51.414Z,52376.76
2022-12-17T19:39:23.205Z,52368.72
2022-12-17T19:41:54.964Z,52374.35
2022-12-17T19:44:27.345Z,52379.57
2022-12-17T19:46:59.185Z,52370.73
2022-12-17T19:49:30.862Z,52363.49
2022-12-17T19:52:02.225Z,52370.73
2022-12-17T19:54:33.831Z,52386.00
2022-12-17T19:57:05.742Z,52362.29
2022-12-17T19:59:38.552Z,52375.95
2022-12-17T20:02:08.794Z,52360.68
2022-12-17T20:04:40.426Z,52355.86
2022-12-17T20:07:11.879Z,52370.33
2022-12-17T20:09:45.583Z,52359.48
2022-12-17T20:12:17.094Z,52376.76
2022-12-17T20:14:47.232Z,52371.93
2022-12-17T20:17:18.790Z,52381.18
2022-12-17T20:19:53.523Z,52374.75
2022-12-17T20:22:26.675Z,52371.54
2022-12-17T20:24:56.711Z,52374.35
2022-12-17T20:27:28.297Z,52379.57
2022-12-17T20:29:59.689Z,52369.52
2022-12-17T20:32:31.528Z,52379.97
2022-12-17T20:35:01.379Z,52376.36
2022-12-17T20:37:32.967Z,52389.21
2022-12-17T20:40:04.426Z,52366.71
2022-12-17T20:42:35.970Z,52370.33
2022-12-17T20:45:08.370Z,52371.54
2022-12-17T20:47:39.826Z,52362.29
2022-12-17T20:50:12.650Z,52383.59
2022-12-17T20:52:44.106Z,52371.93
2022-12-17T20:55:15.511Z,52395.24
2022-12-17T20:57:47.134Z,52364.30
2022-12-17T21:00:19.395Z,52379.17
2022-12-17T21:02:51.800Z,52373.95
2022-12-17T21:05:23.528Z,52367.11
2022-12-17T21:07:54.865Z,52367.11
2022-12-17T21:10:26.490Z,52362.70
2022-12-17T21:13:15.621Z,52360.68
2022-12-17T21:15:52.441Z,52363.09
2022-12-17T21:18:23.894Z,52365.51
2022-12-17T21:20:59.591Z,52364.70
2022-12-17T21:23:31.084Z,52365.50
2022-12-17T21:26:03.870Z,52355.46
2022-12-17T21:28:41.742Z,52343.80
2022-12-17T21:31:20.761Z,52340.59
2022-12-17T21:33:52.593Z,52344.21
2022-12-17T21:36:24.294Z,52344.61
2022-12-17T21:38:55.787Z,52339.79
2022-12-17T21:41:28.176Z,52364.70
2022-12-17T21:44:00.253Z,52351.84
2022-12-17T21:46:31.907Z,52319.29
2022-12-17T21:49:02.209Z,52357.87
2022-12-17T21:51:34.004Z,52353.04
2022-12-17T21:54:09.003Z,52344.61
2022-12-17T21:56:41.634Z,52354.65
2022-12-17T21:59:13.518Z,52343.80
2022-12-17T22:01:45.057Z,52335.36
2022-12-17T22:04:15.610Z,52341.39
2022-12-17T22:06:49.132Z,52333.36
2022-12-17T22:09:55.217Z,52331.74
2022-12-17T22:12:45.809Z,52334.56
2022-12-17T22:15:17.206Z,52349.43
2022-12-17T22:17:49.432Z,52322.91
2022-12-17T22:20:20.890Z,52342.20
2022-12-17T22:22:52.363Z,52342.60
2022-12-17T22:25:23.978Z,52330.94
2022-12-17T22:27:55.579Z,52338.18
2022-12-17T22:30:44.803Z,52340.99
2022-12-17T22:33:34.536Z,52330.54
2022-12-17T22:38:46.880Z,52330.54
2022-12-17T22:43:49.338Z,52334.16
2022-12-17T22:44:38.823Z,52341.39
2022-12-17T22:45:09.326Z,52347.42
2022-12-17T22:47:42.317Z,52324.11
2022-12-17T22:50:14.037Z,52327.73
2022-12-17T22:52:45.868Z,52329.34
2022-12-17T22:55:15.903Z,52335.36
2022-12-17T22:57:47.753Z,52346.21
2022-12-17T23:00:34.690Z,52340.59
2022-12-17T23:03:06.339Z,52335.76
2022-12-17T23:05:38.126Z,52325.32
2022-12-17T23:08:09.604Z,52331.75
2022-12-17T23:10:40.988Z,52334.56
2022-12-17T23:13:12.385Z,52322.10
2022-12-17T23:15:43.872Z,52324.52
2022-12-17T23:18:15.750Z,52345.41
2022-12-17T23:20:47.165Z,52338.18
2022-12-17T23:23:18.558Z,52345.01
2022-12-17T23:25:49.885Z,52331.74
2022-12-17T23:28:21.209Z,52310.85
2022-12-17T23:30:52.655Z,52345.01
2022-12-17T23:33:24.213Z,52323.71
2022-12-17T23:36:04.421Z,52321.70
2022-12-17T23:38:35.952Z,52340.19
2022-12-17T23:41:06.763Z,52315.67
2022-12-17T23:43:38.420Z,52341.39
2022-12-17T23:46:10.423Z,52338.98
2022-12-17T23:48:45.034Z,52329.74
2022-12-17T23:51:17.477Z,52330.14
2022-12-17T23:53:48.989Z,52332.95
2022-12-17T23:56:21.177Z,52321.70
2022-12-17T23:58:54.741Z,52324.11
